Time;durP1;ratioP1;P1;durP2;ratioP2;P2;SDS_P1;SDS_P2;PMS_P1;PMS_P2;Temp;Humidity;BMP_temperature;BMP_pressure;BME280_temperature;BME280_humidity;BME280_pressure;Samples;Min_cycle;Max_cycle;Signal;HPM_P1;HPM_P2
2021/10/28 00:13:24;;;;;;;48.90;20.05;;;;;;;6.81;82.93;96834.66;5048158;28;20125;-71
2021/10/28 00:15:56;;;;;;;48.60;20.75;;;;;;;6.81;82.91;96823.81;5047270;28;20061;-70
2021/10/28 00:18:38;;;;;;;44.97;20.27;;;;;;;6.80;82.43;96822.22;5047862;28;20543;-70
2021/10/28 00:21:04;;;;;;;43.65;19.10;;;;;;;6.72;82.58;96829.00;5047060;28;20045;-70
2021/10/28 00:23:40;;;;;;;40.80;19.25;;;;;;;6.66;82.66;96832.03;5047315;28;20053;-70
2021/10/28 00:26:06;;;;;;;78.28;21.05;;;;;;;6.67;83.04;96833.66;5046133;28;20049;-70
2021/10/28 00:28:34;;;;;;;57.78;21.38;;;;;;;6.66;82.68;96832.03;5047506;28;20045;-70
2021/10/28 00:31:01;;;;;;;46.10;22.08;;;;;;;6.72;82.95;96836.31;5048004;28;20075;-70
2021/10/28 00:33:28;;;;;;;57.03;22.00;;;;;;;6.77;82.39;96828.16;5046580;28;20069;-70
2021/10/28 00:35:55;;;;;;;42.60;22.15;;;;;;;6.74;82.56;96826.03;5047567;28;20057;-70
2021/10/28 00:38:21;;;;;;;36.60;21.50;;;;;;;6.76;82.82;96826.56;5045569;28;20056;-70
2021/10/28 00:40:49;;;;;;;71.90;22.52;;;;;;;6.73;82.62;96827.09;5047086;28;20041;-70
2021/10/28 00:43:16;;;;;;;58.42;24.38;;;;;;;6.76;82.68;96827.38;5046329;28;20511;-70
2021/10/28 00:45:42;;;;;;;45.90;20.92;;;;;;;6.71;82.24;96821.19;5047343;28;20057;-70
2021/10/28 00:48:09;;;;;;;55.35;22.13;;;;;;;6.71;82.75;96829.31;5046720;28;20782;-70
2021/10/28 00:50:35;;;;;;;44.92;22.63;;;;;;;6.76;82.31;96823.84;5047126;28;20055;-70
2021/10/28 00:53:03;;;;;;;43.53;22.05;;;;;;;6.75;81.46;96825.75;5046864;28;20671;-71
2021/10/28 00:55:30;;;;;;;40.20;20.50;;;;;;;6.76;81.87;96831.97;5046710;28;20051;-71
2021/10/28 00:57:58;;;;;;;53.22;21.15;;;;;;;6.75;81.70;96833.88;5047675;28;20529;-70
2021/10/28 01:00:24;;;;;;;46.60;21.45;;;;;;;6.70;81.78;96827.69;5047681;28;20052;-71
2021/10/28 01:02:51;;;;;;;37.50;21.20;;;;;;;6.67;82.00;96826.34;5051843;28;20064;-70
2021/10/28 01:05:18;;;;;;;47.42;23.08;;;;;;;6.67;82.45;96822.81;5050493;28;20063;-72
2021/10/28 01:07:45;;;;;;;58.90;23.17;;;;;;;6.67;82.81;96818.22;5051656;28;20049;-70
2021/10/28 01:10:12;;;;;;;45.25;21.02;;;;;;;6.67;82.50;96817.41;5050975;28;20519;-70
2021/10/28 01:12:39;;;;;;;44.72;23.10;;;;;;;6.69;82.91;96812.56;5051140;28;20053;-70
2021/10/28 01:15:14;;;;;;;60.35;23.75;;;;;;;6.72;82.99;96814.66;5051038;28;20053;-70
2021/10/28 01:17:41;;;;;;;41.63;23.25;;;;;;;6.67;82.85;96814.72;5050523;28;20060;-70
2021/10/28 01:20:10;;;;;;;55.60;24.90;;;;;;;6.66;82.81;96821.22;5051172;28;20060;-70
2021/10/28 01:22:40;;;;;;;50.25;23.13;;;;;;;6.68;82.89;96813.63;5050273;28;20482;-70
2021/10/28 01:25:07;;;;;;;43.22;22.50;;;;;;;6.67;83.15;96817.41;5051296;28;20068;-71
2021/10/28 01:27:34;;;;;;;117.13;23.67;;;;;;;6.58;82.48;96811.81;5050506;28;20048;-71
2021/10/28 01:30:00;;;;;;;87.75;24.05;;;;;;;6.57;82.61;96806.66;5051368;28;20436;-71
2021/10/28 01:32:27;;;;;;;73.53;23.98;;;;;;;6.53;82.94;96812.66;5050199;28;20679;-71
2021/10/28 01:34:53;;;;;;;92.05;24.50;;;;;;;6.55;82.73;96804.25;5050670;28;20087;-71
2021/10/28 01:37:21;;;;;;;55.88;23.63;;;;;;;6.53;82.77;96803.72;5050430;28;20053;-71
2021/10/28 01:39:48;;;;;;;72.97;24.80;;;;;;;6.51;82.74;96805.88;5050343;28;20052;-71
2021/10/28 01:42:15;;;;;;;82.95;24.15;;;;;;;6.50;83.02;96799.66;5051180;28;20053;-71
2021/10/28 01:44:41;;;;;;;100.35;25.40;;;;;;;6.47;82.47;96794.84;5049946;28;20502;-70
2021/10/28 01:47:08;;;;;;;65.10;23.88;;;;;;;6.48;82.33;96799.16;5050566;28;20040;-70
2021/10/28 01:49:35;;;;;;;94.97;24.70;;;;;;;6.49;82.76;96797.25;5049965;28;20052;-71
2021/10/28 01:52:01;;;;;;;41.40;21.40;;;;;;;6.49;82.78;96798.06;5050242;28;20053;-71
2021/10/28 01:54:30;;;;;;;78.07;24.08;;;;;;;6.46;83.01;96795.09;5049816;28;20049;-71
2021/10/28 01:56:56;;;;;;;118.75;23.75;;;;;;;6.44;82.62;96792.69;5049833;28;20049;-71
2021/10/28 01:59:23;;;;;;;60.40;22.48;;;;;;;6.39;82.77;96792.72;5049964;28;20052;-71
2021/10/28 02:01:49;;;;;;;138.45;27.30;;;;;;;6.40;82.90;96791.63;5049987;28;20060;-71
2021/10/28 02:04:16;;;;;;;63.42;24.25;;;;;;;6.44;83.24;96792.69;5050161;28;20053;-71
2021/10/28 02:06:43;;;;;;;63.97;23.65;;;;;;;6.49;82.81;96789.13;5049257;28;20048;-71
2021/10/28 02:09:10;;;;;;;83.35;23.23;;;;;;;6.42;83.38;96789.47;5049966;28;20049;-71
2021/10/28 02:11:38;;;;;;;52.00;22.23;;;;;;;6.38;83.17;96796.50;5049549;28;20203;-71
2021/10/28 02:14:05;;;;;;;82.20;24.40;;;;;;;6.40;83.62;96790.81;5050376;28;20056;-71
2021/10/28 02:16:33;;;;;;;129.23;23.88;;;;;;;6.38;83.51;96785.69;5049518;28;20044;-70
2021/10/28 02:19:01;;;;;;;83.00;27.00;;;;;;;6.38;83.72;96788.41;5050036;28;20048;-70
2021/10/28 02:21:28;;;;;;;70.03;24.83;;;;;;;6.43;83.51;96796.47;5049832;28;20040;-70
2021/10/28 02:23:54;;;;;;;54.65;24.25;;;;;;;6.48;83.36;96791.03;5049566;28;20128;-71
2021/10/28 02:26:22;;;;;;;88.90;25.10;;;;;;;6.52;83.31;96791.25;5049567;28;20049;-71
2021/10/28 02:28:49;;;;;;;91.97;24.77;;;;;;;6.47;83.19;96796.72;5049452;28;20040;-71
2021/10/28 02:31:16;;;;;;;69.53;22.17;;;;;;;6.44;83.26;96797.28;5049987;28;20049;-71
2021/10/28 02:33:42;;;;;;;61.60;24.23;;;;;;;6.39;83.36;96806.25;5049073;28;20049;-71
2021/10/28 02:36:09;;;;;;;75.20;25.25;;;;;;;6.42;83.72;96800.28;5049684;28;20051;-71
2021/10/28 02:38:36;;;;;;;64.60;23.75;;;;;;;6.43;83.79;96796.47;5048948;28;20052;-70
2021/10/28 02:41:03;;;;;;;80.57;25.70;;;;;;;6.41;83.78;96798.63;5049393;28;20048;-70
2021/10/28 02:43:29;;;;;;;62.15;23.92;;;;;;;6.40;84.03;96797.03;5049296;28;20056;-70
2021/10/28 02:45:57;;;;;;;89.85;28.98;;;;;;;6.46;83.89;96798.59;5049937;28;20079;-71
2021/10/28 02:48:24;;;;;;;57.55;24.20;;;;;;;6.53;83.57;96801.03;5049702;28;20056;-71
2021/10/28 02:50:50;;;;;;;68.53;23.52;;;;;;;6.48;83.19;96801.84;5049531;28;20063;-70
2021/10/28 02:53:17;;;;;;;72.85;24.05;;;;;;;6.47;83.61;96807.53;5049791;28;20064;-70
2021/10/28 02:55:43;;;;;;;56.08;23.05;;;;;;;6.45;83.83;96799.69;5048739;28;20051;-70
2021/10/28 02:58:10;;;;;;;63.22;22.65;;;;;;;6.33;83.44;96799.25;5049187;28;20056;-71
2021/10/28 03:00:37;;;;;;;71.97;22.95;;;;;;;6.22;84.12;96800.41;5048230;28;20045;-70
2021/10/28 03:03:05;;;;;;;44.78;21.75;;;;;;;6.18;84.74;96796.63;5046913;28;20052;-70
2021/10/28 03:05:31;;;;;;;63.50;21.73;;;;;;;6.09;85.16;96798.28;5048881;28;20053;-71
2021/10/28 03:07:58;;;;;;;85.63;22.77;;;;;;;5.91;85.41;96799.72;5048940;28;20056;-70
2021/10/28 03:10:25;;;;;;;63.05;23.30;;;;;;;5.86;86.50;96800.53;5048738;28;20049;-70
2021/10/28 03:12:53;;;;;;;69.18;24.02;;;;;;;5.83;86.71;96809.19;5048552;28;20049;-70
2021/10/28 03:15:20;;;;;;;53.35;22.77;;;;;;;5.84;87.16;96808.09;5048645;28;20136;-70
2021/10/28 03:18:08;;;;;;;49.55;24.40;;;;;;;5.86;87.65;96807.84;5048134;28;20048;-71
2021/10/28 03:26:05;;;;;;;50.53;24.83;;;;;;;6.05;87.72;96816.94;5048165;28;20094;-70
2021/10/28 03:28:31;;;;;;;67.78;24.45;;;;;;;6.04;87.15;96812.63;5048486;28;20045;-70
2021/10/28 03:30:58;;;;;;;70.05;24.38;;;;;;;5.96;86.68;96811.34;5048180;28;20052;-71
2021/10/28 03:33:24;;;;;;;44.85;22.52;;;;;;;5.99;86.74;96818.06;5048702;28;20056;-71
2021/10/28 03:35:52;;;;;;;54.08;22.48;;;;;;;6.03;86.92;96818.34;5047876;28;20044;-71
2021/10/28 03:38:22;;;;;;;55.40;24.45;;;;;;;6.00;86.62;96820.50;5048579;28;20045;-70
2021/10/28 03:46:41;;;;;;;49.58;23.98;;;;;;;6.03;87.26;96819.13;5045943;28;20037;-70
2021/10/28 04:00:40;;;;;;;90.07;24.02;;;;;;;5.79;86.88;96831.63;5048282;28;20140;-70
2021/10/28 04:06:15;;;;;;;53.92;24.33;;;;;;;5.83;87.40;96827.28;5047404;28;20079;-70
2021/10/28 04:17:20;;;;;;;68.70;24.35;;;;;;;5.79;87.08;96828.91;5047361;28;20071;-70
2021/10/28 04:30:47;;;;;;;97.55;26.83;;;;;;;5.91;87.61;96832.97;5047805;28;20075;-70
2021/10/28 04:33:14;;;;;;;70.40;26.02;;;;;;;5.99;87.88;96824.28;5046692;28;20380;-71
2021/10/28 04:35:40;;;;;;;68.95;25.40;;;;;;;6.06;87.99;96829.41;5047380;28;20052;-71
2021/10/28 04:38:07;;;;;;;65.63;23.88;;;;;;;6.07;87.27;96830.22;5046542;28;20091;-71
2021/10/28 04:40:35;;;;;;;53.03;25.52;;;;;;;6.07;86.76;96830.22;5047945;28;20056;-71
2021/10/28 04:43:01;;;;;;;62.28;26.55;;;;;;;6.09;86.96;96828.03;5046680;28;20045;-71
2021/10/28 04:45:27;;;;;;;85.45;25.60;;;;;;;6.10;86.28;96826.94;5047567;28;20052;-71
2021/10/28 04:47:54;;;;;;;70.18;24.27;;;;;;;6.17;86.34;96830.16;5047235;28;20079;-70
2021/10/28 04:50:20;;;;;;;66.65;24.40;;;;;;;6.17;85.61;96832.88;5046521;28;20356;-70
2021/10/28 04:52:47;;;;;;;72.45;21.75;;;;;;;6.03;85.38;96829.16;5047444;28;20045;-71
2021/10/28 04:55:13;;;;;;;65.68;23.02;;;;;;;5.98;85.53;96821.88;5046301;28;20048;-71
2021/10/28 04:57:41;;;;;;;61.22;22.98;;;;;;;5.97;85.78;96814.84;5047589;28;20056;-71
2021/10/28 05:00:09;;;;;;;62.88;22.38;;;;;;;5.88;86.22;96814.56;5047112;28;20528;-71
2021/10/28 05:02:35;;;;;;;52.97;23.50;;;;;;;5.89;86.88;96808.06;5047832;28;20057;-71
2021/10/28 05:05:02;;;;;;;58.45;23.50;;;;;;;5.87;86.84;96815.66;5046325;28;20072;-70
2021/10/28 05:07:28;;;;;;;51.83;23.20;;;;;;;5.86;87.33;96814.03;5047249;28;20563;-71
2021/10/28 05:09:55;;;;;;;62.95;25.98;;;;;;;5.86;87.57;96811.34;5046902;28;20057;-71
2021/10/28 05:12:21;;;;;;;65.70;26.00;;;;;;;5.91;88.01;96807.81;5046837;28;20502;-71
2021/10/28 05:14:49;;;;;;;51.35;23.50;;;;;;;5.97;88.14;96810.25;5047269;28;20056;-70
2021/10/28 05:17:15;;;;;;;48.15;24.65;;;;;;;5.98;87.46;96811.84;5046640;28;20049;-71
2021/10/28 05:19:44;;;;;;;65.97;25.80;;;;;;;5.96;87.54;96816.75;5047957;28;20049;-71
2021/10/28 05:22:11;;;;;;;71.97;23.90;;;;;;;6.04;87.64;96822.66;5046208;28;20458;-71
2021/10/28 05:24:37;;;;;;;53.75;23.52;;;;;;;6.10;87.06;96821.53;5046825;28;20048;-71
2021/10/28 05:27:04;;;;;;;58.03;24.08;;;;;;;6.10;86.69;96818.81;5044501;28;20547;-70
2021/10/28 05:29:31;;;;;;;49.63;21.80;;;;;;;6.16;86.51;96812.31;5045918;28;20057;-71
2021/10/28 05:31:59;;;;;;;44.85;20.65;;;;;;;6.14;85.89;96815.28;5046754;28;20531;-71
2021/10/28 05:34:25;;;;;;;62.08;24.02;;;;;;;6.18;86.28;96821.78;5046676;28;20561;-70
2021/10/28 05:36:52;;;;;;;50.10;21.55;;;;;;;6.17;86.38;96820.16;5046604;28;20471;-70
2021/10/28 05:39:19;;;;;;;41.47;20.48;;;;;;;6.17;85.38;96816.66;5046443;28;20479;-71
2021/10/28 05:41:46;;;;;;;46.90;21.27;;;;;;;6.14;85.07;96819.91;5045549;28;20045;-73
2021/10/28 05:44:13;;;;;;;34.50;20.13;;;;;;;6.17;85.13;96825.56;5045886;28;20154;-73
2021/10/28 05:46:39;;;;;;;40.45;21.98;;;;;;;6.17;85.43;96822.06;5048904;28;20653;-73
2021/10/28 05:49:07;;;;;;;38.97;20.92;;;;;;;6.12;85.24;96824.78;5049874;28;20049;-73
2021/10/28 05:51:35;;;;;;;33.33;18.85;;;;;;;6.03;85.05;96823.75;5051105;28;20053;-73
2021/10/28 05:54:02;;;;;;;30.58;18.52;;;;;;;5.96;85.36;96822.16;5049433;28;20455;-73
2021/10/28 05:56:28;;;;;;;36.60;18.70;;;;;;;5.90;85.48;96820.53;5050626;28;20045;-72
2021/10/28 05:58:55;;;;;;;29.83;18.17;;;;;;;5.87;85.89;96821.06;5050165;28;20055;-73
2021/10/28 06:01:21;;;;;;;30.55;17.73;;;;;;;5.81;85.63;96830.28;5049857;28;20102;-73
2021/10/28 06:03:48;;;;;;;29.88;16.33;;;;;;;5.69;85.68;96835.16;5050371;28;20056;-73
2021/10/28 06:06:15;;;;;;;32.63;16.48;;;;;;;5.57;85.07;96831.97;5049748;28;20140;-73
2021/10/28 06:08:42;;;;;;;25.77;15.05;;;;;;;5.49;85.29;96830.66;5049864;28;20049;-71
2021/10/28 06:11:08;;;;;;;24.38;14.73;;;;;;;5.39;84.99;96836.88;5048487;28;20075;-71
2021/10/28 06:13:42;;;;;;;60.17;15.02;;;;;;;5.32;85.15;96833.63;5050517;28;20068;-72
2021/10/28 06:16:09;;;;;;;34.75;15.25;;;;;;;5.26;85.22;96832.00;5049079;28;20055;-72
2021/10/28 06:18:38;;;;;;;60.22;15.57;;;;;;;5.28;85.69;96834.47;5050358;28;20040;-71
2021/10/28 06:21:05;;;;;;;26.05;14.38;;;;;;;5.30;85.69;96833.09;5049202;28;20052;-72
2021/10/28 06:23:34;;;;;;;24.58;14.95;;;;;;;5.33;86.00;96837.97;5049839;28;20131;-71
2021/10/28 06:26:00;;;;;;;32.67;14.55;;;;;;;5.35;85.71;96830.38;5049761;28;20044;-72
2021/10/28 06:28:27;;;;;;;31.30;14.95;;;;;;;5.37;86.16;96836.31;5049345;28;20033;-72
2021/10/28 06:30:53;;;;;;;53.03;15.63;;;;;;;5.41;86.11;96840.09;5050096;28;20041;-71
2021/10/28 06:33:21;;;;;;;39.05;16.50;;;;;;;5.42;86.23;96841.72;5049034;28;20052;-72
2021/10/28 06:35:49;;;;;;;43.88;15.82;;;;;;;5.48;85.74;96835.25;5050122;28;20063;-71
2021/10/28 06:38:15;;;;;;;38.63;15.48;;;;;;;5.52;85.52;96834.69;5048689;28;20049;-71
2021/10/28 06:40:43;;;;;;;38.13;14.93;;;;;;;5.55;84.93;96834.13;5050351;28;20045;-71
2021/10/28 06:43:10;;;;;;;34.72;15.43;;;;;;;5.49;84.89;96842.25;5048637;28;20055;-71
2021/10/28 06:45:37;;;;;;;38.80;16.05;;;;;;;5.56;85.27;96843.84;5049642;28;20080;-71
2021/10/28 06:48:05;;;;;;;30.33;15.98;;;;;;;5.61;85.95;96839.25;5049037;28;20057;-72
2021/10/28 06:50:36;;;;;;;40.83;15.85;;;;;;;5.69;85.71;96837.88;5049582;28;20049;-72
2021/10/28 06:53:09;;;;;;;35.95;15.75;;;;;;;5.70;85.35;96837.63;5049389;28;20140;-72
2021/10/28 06:55:42;;;;;;;36.45;16.70;;;;;;;5.72;85.90;96834.63;5048835;28;20597;-73
2021/10/28 07:03:38;;;;;;;25.35;15.55;;;;;;;5.69;85.84;96841.41;5029093;28;20060;-72
2021/10/28 07:06:09;;;;;;;29.35;16.50;;;;;;;5.67;86.52;96853.56;5028593;28;20552;-72
2021/10/28 07:08:38;;;;;;;49.25;15.77;;;;;;;5.67;86.46;96850.84;5028479;28;20571;-72
2021/10/28 07:11:09;;;;;;;41.72;15.43;;;;;;;5.54;86.57;96854.13;5029019;28;20053;-73
2021/10/28 07:13:40;;;;;;;33.55;15.18;;;;;;;5.49;87.40;96852.25;5028788;28;20055;-72
2021/10/28 07:16:15;;;;;;;28.63;16.60;;;;;;;5.55;88.16;96855.75;5028974;28;20081;-71
2021/10/28 07:18:50;;;;;;;27.50;17.08;;;;;;;5.60;88.63;96853.84;5028503;28;20073;-72
2021/10/28 07:21:39;;;;;;;35.25;17.13;;;;;;;5.65;88.67;96848.44;5028484;28;20049;-72
2021/10/28 07:24:24;;;;;;;30.13;16.13;;;;;;;5.74;88.84;96843.25;5031888;28;20164;-72
2021/10/28 07:32:53;;;;;;;32.42;16.08;;;;;;;5.80;87.62;96835.97;5037307;28;20059;-73
2021/10/28 07:35:33;;;;;;;31.98;16.23;;;;;;;5.81;87.90;96832.97;5047688;28;20569;-72
2021/10/28 07:38:35;;;;;;;30.98;16.73;;;;;;;5.92;87.51;96837.28;5048974;28;20526;-72
2021/10/28 08:06:19;;;;;;;34.63;17.17;;;;;;;6.63;86.63;96827.19;5047932;28;20542;-71
2021/10/28 08:14:30;;;;;;;28.65;16.75;;;;;;;6.63;85.52;96827.19;5048062;28;20523;-71
2021/10/28 08:17:06;;;;;;;46.72;16.95;;;;;;;6.71;85.29;96819.28;5047808;28;20049;-71
2021/10/28 08:19:42;;;;;;;35.60;16.95;;;;;;;6.67;84.61;96815.50;5047515;28;20069;-71
2021/10/28 08:22:13;;;;;;;36.75;17.75;;;;;;;6.62;84.85;96820.16;5047779;28;20102;-72
2021/10/28 08:30:09;;;;;;;35.00;17.27;;;;;;;6.72;85.31;96815.47;5047253;28;20563;-72
2021/10/28 08:32:37;;;;;;;37.63;19.23;;;;;;;6.77;85.96;96811.94;5047636;28;20049;-72
2021/10/28 08:35:06;;;;;;;30.73;15.65;;;;;;;6.85;85.30;96808.63;5047137;28;20106;-71
2021/10/28 08:37:39;;;;;;;31.58;17.33;;;;;;;6.85;85.17;96808.63;5047096;28;20175;-72
2021/10/28 08:40:07;;;;;;;30.85;16.95;;;;;;;6.88;85.01;96809.94;5047553;28;20045;-71
2021/10/28 08:42:34;;;;;;;29.08;16.30;;;;;;;6.90;84.30;96800.47;5047223;28;20099;-71
2021/10/28 08:45:02;;;;;;;36.10;16.95;;;;;;;6.92;84.62;96803.69;5047976;28;20049;-71
2021/10/28 08:47:29;;;;;;;34.47;17.40;;;;;;;6.92;84.32;96795.56;5046632;28;20166;-72
2021/10/28 08:49:59;;;;;;;30.20;16.17;;;;;;;6.92;84.33;96795.56;5047840;28;20055;-71
2021/10/28 08:55:21;;;;;;;29.20;16.13;;;;;;;6.85;84.50;96791.59;5028610;28;20055;-71
2021/10/28 09:26:29;;;;;;;33.90;18.05;;;;;;;6.99;84.79;96779.00;5030323;28;20145;-71
2021/10/28 09:29:02;;;;;;;33.13;18.45;;;;;;;6.99;85.10;96777.09;5031521;28;20057;-72
2021/10/28 09:31:33;;;;;;;33.67;18.25;;;;;;;6.98;85.04;96780.88;5030114;28;20132;-71
2021/10/28 09:34:10;;;;;;;33.88;18.98;;;;;;;7.04;85.38;96782.47;5031513;28;20509;-71
2021/10/28 09:45:31;;;;;;;40.85;21.75;;;;;;;7.49;85.27;96766.06;5030072;28;20184;-73
2021/10/28 09:48:17;;;;;;;38.13;20.33;;;;;;;7.54;84.80;96769.50;5030878;28;20081;-73
2021/10/28 09:50:51;;;;;;;35.72;19.02;;;;;;;7.67;85.02;96767.19;5030821;28;20042;-73
2021/10/28 09:53:27;;;;;;;35.17;18.63;;;;;;;7.72;84.12;96767.13;5029934;28;20139;-73
2021/10/28 09:58:40;;;;;;;35.75;19.92;;;;;;;7.80;83.26;96769.22;5050231;28;20071;-73
2021/10/28 10:01:10;;;;;;;34.70;18.45;;;;;;;7.90;83.83;96763.66;5050440;28;20136;-73
2021/10/28 10:03:39;;;;;;;33.05;17.98;;;;;;;8.03;83.36;96768.38;5050262;28;20060;-72
2021/10/28 10:06:12;;;;;;;31.73;18.42;;;;;;;8.13;83.10;96763.91;5049728;28;20512;-72
2021/10/28 10:08:38;;;;;;;34.00;19.57;;;;;;;8.16;82.41;96761.44;5050787;28;20052;-73
2021/10/28 10:11:05;;;;;;;36.08;19.42;;;;;;;8.19;82.75;96765.44;5049595;28;20053;-73
2021/10/28 10:13:32;;;;;;;35.67;19.20;;;;;;;8.22;82.46;96764.88;5050738;28;20048;-73
2021/10/28 10:16:02;;;;;;;32.67;19.23;;;;;;;8.28;82.06;96763.69;5049838;28;20666;-73
2021/10/28 10:18:30;;;;;;;36.28;20.05;;;;;;;8.29;81.55;96760.69;5050388;28;20045;-73
2021/10/28 10:21:00;;;;;;;31.75;18.48;;;;;;;8.26;80.96;96765.91;5050145;28;20059;-72
2021/10/28 10:23:45;;;;;;;30.85;18.35;;;;;;;8.27;80.25;96762.91;5050443;28;20049;-73
2021/10/28 11:31:05;;;;;;;31.73;18.98;;;;;;;9.49;79.62;96697.56;5048784;28;20071;-73
2021/10/28 12:23:55;;;;;;;27.60;17.50;;;;;;;12.13;70.00;96628.53;5048426;28;20153;-71
2021/10/28 12:46:12;;;;;;;23.50;15.93;;;;;;;12.70;65.27;96618.19;5028120;28;20064;-75
2021/10/28 12:51:39;;;;;;;20.60;14.50;;;;;;;12.61;65.29;96613.84;5009162;28;20790;-74
2021/10/28 13:02:05;;;;;;;20.88;14.63;;;;;;;12.57;66.43;96612.91;5046261;28;20045;-74
2021/10/28 13:03:26;;;;;;;28.38;17.30;;;;;;;12.34;66.61;96609.56;5048127;28;20060;-74
2021/10/28 13:28:26;;;;;;;;;;;;;;;12.88;62.93;96583.41;5026830;28;20075;-72
2021/10/28 13:50:12;;;;;;;19.92;13.57;;;;;;;13.49;63.24;96583.16;5046171;28;20120;-71
2021/10/28 13:58:26;;;;;;;19.58;13.43;;;;;;;14.07;62.04;96575.97;5035795;28;20620;-73
2021/10/28 14:20:46;;;;;;;17.10;12.77;;;;;;;14.10;61.33;96564.38;5030509;28;20063;-73
2021/10/28 14:23:28;;;;;;;17.05;13.02;;;;;;;13.91;61.39;96567.56;5050506;28;20451;-72
2021/10/28 14:31:46;;;;;;;18.98;13.98;;;;;;;13.26;63.31;96564.31;5051732;28;20051;-72
2021/10/28 14:37:32;;;;;;;21.05;14.55;;;;;;;12.84;65.65;96551.56;5026659;28;20476;-72
2021/10/28 15:02:34;;;;;;;25.05;15.70;;;;;;;11.58;71.05;96533.59;5042678;28;20051;-72
2021/10/28 15:29:47;;;;;;;27.08;17.88;;;;;;;10.45;72.78;96519.66;5049494;28;20133;-73
2021/10/28 15:38:10;;;;;;;23.75;16.25;;;;;;;10.03;73.53;96524.50;5048760;28;20531;-72
2021/10/28 15:40:52;;;;;;;29.77;17.70;;;;;;;9.90;74.01;96525.38;5048229;28;20044;-73
2021/10/28 15:43:47;;;;;;;26.35;18.27;;;;;;;9.77;74.19;96523.53;5048872;28;20131;-72
2021/10/28 15:54:57;;;;;;;34.70;20.63;;;;;;;9.00;76.53;96511.63;5025842;28;20068;-72
2021/10/28 15:57:38;;;;;;;38.78;20.73;;;;;;;8.82;77.44;96512.53;5048317;28;20041;-72
2021/10/28 16:22:03;;;;;;;32.65;20.63;;;;;;;7.97;78.91;96495.66;5027805;28;20052;-72
2021/10/28 16:24:32;;;;;;;34.72;21.15;;;;;;;7.84;79.90;96491.00;5036025;28;20041;-72
2021/10/28 16:26:59;;;;;;;36.05;21.30;;;;;;;7.82;80.12;96506.75;5047770;28;20459;-71
2021/10/28 16:29:27;;;;;;;35.22;22.27;;;;;;;7.81;80.39;96502.44;5045313;28;20053;-72
2021/10/28 16:31:54;;;;;;;34.08;21.17;;;;;;;7.80;80.07;96498.91;5048142;28;20051;-72
2021/10/28 16:34:22;;;;;;;33.17;21.25;;;;;;;7.81;80.41;96499.72;5044841;28;20049;-73
2021/10/28 16:36:49;;;;;;;32.25;20.38;;;;;;;7.81;80.37;96505.16;5048166;28;20416;-71
2021/10/28 16:39:17;;;;;;;32.47;19.88;;;;;;;7.81;79.99;96499.72;5046319;28;20048;-72
2021/10/28 16:41:46;;;;;;;33.03;19.85;;;;;;;7.79;80.19;96499.22;5046881;28;20045;-72
2021/10/28 16:44:13;;;;;;;32.53;20.67;;;;;;;7.77;79.52;96498.69;5044771;28;20051;-71
2021/10/28 16:46:40;;;;;;;31.38;20.80;;;;;;;7.73;79.85;96503.13;5043041;28;20703;-72
2021/10/28 16:49:08;;;;;;;34.00;20.45;;;;;;;7.68;79.63;96500.50;5047299;28;20041;-71
2021/10/28 16:51:35;;;;;;;33.13;20.77;;;;;;;7.64;79.53;96500.28;5045509;28;20063;-72
2021/10/28 16:54:02;;;;;;;33.95;21.30;;;;;;;7.63;79.28;96503.28;5047544;28;20053;-71
2021/10/28 16:56:30;;;;;;;32.15;20.90;;;;;;;7.55;79.66;96500.13;5045511;28;20489;-71
2021/10/28 16:58:56;;;;;;;32.00;20.67;;;;;;;7.50;79.63;96511.03;5048000;28;20045;-71
2021/10/28 17:01:24;;;;;;;31.83;20.17;;;;;;;7.47;79.56;96508.94;5046257;28;20068;-71
2021/10/28 17:03:51;;;;;;;31.45;19.85;;;;;;;7.41;79.48;96496.53;5045770;28;20060;-71
2021/10/28 17:06:17;;;;;;;30.77;20.27;;;;;;;7.39;80.02;96506.06;5046638;28;20052;-71
2021/10/28 17:08:44;;;;;;;32.53;20.33;;;;;;;7.36;79.46;96515.59;5044975;28;20412;-72
2021/10/28 17:11:11;;;;;;;34.22;20.75;;;;;;;7.31;80.22;96508.34;5045881;28;20076;-72
2021/10/28 17:13:39;;;;;;;31.02;21.23;;;;;;;7.30;79.94;96516.75;5045231;28;20528;-72
2021/10/28 17:16:06;;;;;;;32.17;20.77;;;;;;;7.28;79.98;96513.53;5043293;28;20110;-71
2021/10/28 17:18:33;;;;;;;29.85;20.52;;;;;;;7.19;79.50;96509.88;5042819;28;20037;-71
2021/10/28 17:21:04;;;;;;;33.22;19.75;;;;;;;7.14;79.62;96513.44;5045976;28;20053;-71
2021/10/28 17:23:33;;;;;;;34.85;19.95;;;;;;;7.09;80.10;96516.22;5046640;28;20103;-71
2021/10/28 17:26:01;;;;;;;31.83;21.23;;;;;;;7.06;80.13;96512.22;5045194;28;20543;-72
2021/10/28 17:28:28;;;;;;;33.58;21.77;;;;;;;7.04;80.71;96508.19;5047180;28;20059;-72
2021/10/28 17:30:56;;;;;;;31.50;20.40;;;;;;;7.02;80.33;96516.59;5045022;28;20048;-72
2021/10/28 17:33:22;;;;;;;35.25;20.77;;;;;;;6.95;80.33;96516.16;5045172;28;20057;-72
2021/10/28 17:35:49;;;;;;;29.50;20.33;;;;;;;6.90;80.67;96512.72;5043876;28;20049;-72
2021/10/28 17:38:15;;;;;;;30.35;20.75;;;;;;;6.84;80.27;96514.69;5044439;28;20045;-72
2021/10/28 17:40:42;;;;;;;31.80;20.83;;;;;;;6.73;80.57;96513.16;5043847;28;20040;-72
2021/10/28 17:43:11;;;;;;;33.42;20.80;;;;;;;6.57;81.14;96514.44;5049513;28;20060;-71
2021/10/28 17:45:39;;;;;;;32.67;21.10;;;;;;;6.53;81.28;96514.25;5049937;28;20045;-71
2021/10/28 17:48:08;;;;;;;30.95;20.02;;;;;;;6.50;81.95;96515.59;5050268;28;20056;-71
2021/10/28 17:50:36;;;;;;;32.80;20.92;;;;;;;6.45;81.72;96518.38;5048562;28;20779;-71
2021/10/28 17:53:02;;;;;;;34.97;21.17;;;;;;;6.37;81.68;96519.00;5049088;28;20682;-71
2021/10/28 17:55:29;;;;;;;35.40;21.77;;;;;;;6.34;82.40;96511.47;5050281;28;20056;-71
2021/10/28 17:57:56;;;;;;;35.25;21.90;;;;;;;6.37;82.58;96516.31;5049165;28;20068;-72
2021/10/28 18:00:23;;;;;;;38.65;23.25;;;;;;;6.41;82.87;96516.50;5049837;28;20048;-71
2021/10/28 18:02:51;;;;;;;44.10;24.02;;;;;;;6.41;83.48;96517.31;5048866;28;20052;-71
2021/10/28 18:05:20;;;;;;;40.53;24.02;;;;;;;6.42;83.76;96521.66;5050198;28;20060;-71
2021/10/28 18:07:47;;;;;;;49.88;25.02;;;;;;;6.47;84.07;96516.19;5049753;28;20420;-72
2021/10/28 18:10:14;;;;;;;80.75;25.92;;;;;;;6.52;84.41;96507.19;5050118;28;20114;-72
2021/10/28 18:12:41;;;;;;;122.47;25.02;;;;;;;6.53;83.70;96509.63;5049945;28;20056;-71
2021/10/28 18:15:09;;;;;;;96.53;26.13;;;;;;;6.48;83.39;96514.28;5049420;28;20874;-72
2021/10/28 18:17:36;;;;;;;159.23;24.98;;;;;;;6.39;82.95;96514.09;5050050;28;20064;-72
2021/10/28 18:20:04;;;;;;;99.85;23.33;;;;;;;6.32;83.36;96519.06;5049122;28;20060;-71
2021/10/28 18:22:36;;;;;;;71.72;23.52;;;;;;;6.31;83.71;96525.53;5050631;28;20049;-71
2021/10/28 18:25:03;;;;;;;53.97;21.42;;;;;;;6.31;83.43;96512.00;5049478;28;20049;-71
2021/10/28 18:27:30;;;;;;;62.72;21.15;;;;;;;6.28;83.34;96509.91;5050571;28;20056;-71
2021/10/28 18:29:56;;;;;;;49.53;20.48;;;;;;;6.28;83.25;96507.19;5049290;28;20044;-71
2021/10/28 18:32:23;;;;;;;39.15;19.00;;;;;;;6.30;83.14;96513.13;5049771;28;20049;-71
2021/10/28 18:34:49;;;;;;;49.88;20.80;;;;;;;6.24;82.97;96506.16;5049952;28;20566;-71
2021/10/28 18:37:16;;;;;;;75.13;21.85;;;;;;;6.18;82.80;96507.31;5049101;28;20061;-72
2021/10/28 18:39:43;;;;;;;51.13;21.85;;;;;;;6.18;83.32;96501.91;5049884;28;20056;-71
2021/10/28 18:42:10;;;;;;;42.03;22.83;;;;;;;6.24;83.54;96504.25;5045644;28;20049;-71
2021/10/28 18:44:37;;;;;;;78.70;25.48;;;;;;;6.23;82.95;96512.66;5048640;28;20052;-72
2021/10/28 18:47:04;;;;;;;53.10;21.55;;;;;;;6.27;83.25;96508.28;5049034;28;20098;-72
2021/10/28 18:49:31;;;;;;;53.88;19.98;;;;;;;6.31;81.79;96505.81;5047454;28;20048;-72
2021/10/28 18:51:58;;;;;;;44.97;20.73;;;;;;;6.26;82.37;96498.53;5046121;28;20052;-71
2021/10/28 18:54:25;;;;;;;58.63;21.33;;;;;;;6.28;82.26;96490.97;5046686;28;20051;-71
2021/10/28 18:56:52;;;;;;;53.72;19.15;;;;;;;6.29;82.24;96492.56;5048774;28;20049;-71
2021/10/28 18:59:19;;;;;;;46.50;18.83;;;;;;;6.26;82.19;96493.13;5048820;28;20048;-71
2021/10/28 19:01:49;;;;;;;34.88;19.45;;;;;;;6.24;82.51;96495.34;5048854;28;20045;-71
2021/10/28 19:04:15;;;;;;;43.88;18.40;;;;;;;6.25;82.33;96489.63;5048475;28;20048;-72